Flight Track Log - Related Links

Times and Time Zones

All times are in EDT time to prevent confusion due to time zone crossing. See the RPA3247 flight status page for this flight to view local times or setup timezone preferences in your user account.

Time Position Orientation Groundspeed Altitude Reporting Facility
EDT Latitude Longitude Course Direction KTS MPH feet Rate Location/Type
Thu 05:27:12 PM 42.7694 -73.8089 135° Southeast 144 166 1,400  Level Boston Center
Thu 05:27:42 PM 42.7881 -73.8150 346° North 157 181 2,100 2,114 Climbing Boston Center
Thu 05:28:40 PM 42.8269 -73.8669 316° Northwest 216 249 4,500 3,000 Climbing Boston Center
Thu 05:29:00 PM 42.5323 -73.9945 171° South  Level Estimated
Thu 05:29:40 PM 42.8594 -73.9328 304° West 216 249 8,000  Level Boston Center
Thu 05:30:00 PM 42.4816 -73.8997 126° Southeast  Level FlightAware Approximate
Thu 05:30:40 PM 42.8628 -74.0122 273° West 200 230 11,200  Level Boston Center
Thu 05:31:00 PM 42.4103 -73.9656 170° South  Level Estimated
Thu 05:31:40 PM 42.8681 -74.0775 276° West 212 244 13,400  Level Boston Center
Thu 05:32:00 PM 42.3491 -73.8831 135° Southeast  Level FlightAware Approximate
Thu 05:32:40 PM 42.8008 -74.1153 202° Southwest 196 226 15,500  Level Boston Center
Thu 05:33:40 PM 42.7511 -74.0858 156° South 198 228 16,800 2,200 Climbing Boston Center
Thu 05:34:40 PM 42.6289 -74.0261 160° South 293 337 19,900 2,700 Climbing Boston Center
Thu 05:35:40 PM 42.5419 -73.9844 161° South 307 353 22,200 2,200 Climbing Boston Center
Thu 05:36:40 PM 42.4531 -73.9400 160° South 328 377 24,300 2,100 Climbing Boston Center
Thu 05:37:40 PM 42.3639 -73.8956 160° South 340 391 26,400 1,700 Climbing Boston Center
Thu 05:38:40 PM 42.2708 -73.8514 161° South 346 398 27,700 800 Climbing Boston Center
Thu 05:39:40 PM 42.1794 -73.8100 161° South 346 398 28,000 150 Climbing Boston Center
Thu 05:40:40 PM 42.0839 -73.8025 177° South 346 398 28,000  Level Boston Center
Thu 05:41:40 PM 41.9878 -73.8058 181° South 346 398 28,000  Level Boston Center
Thu 05:42:40 PM 41.8958 -73.8261 189° South 346 398 28,000  Level Boston Center
Thu 05:43:40 PM 41.8100 -73.8717 202° Southwest 337 388 28,000  Level Boston Center
Thu 05:45:40 PM 41.6392 -73.9603 201° Southwest 332 382 28,000  Level New York Center
Thu 05:46:41 PM 41.5547 -74.0033 201° Southwest 332 382 28,000  Level New York Center
Thu 05:47:39 PM 41.4658 -74.0517 202° Southwest 332 382 28,000  Level New York Center
Thu 05:48:39 PM 41.3792 -74.0972 202° Southwest 338 389 28,000  Level New York Center
Thu 05:49:40 PM 41.2925 -74.1425 201° Southwest 338 389 28,000  Level New York Center
Thu 05:50:41 PM 41.2058 -74.1881 202° Southwest 338 389 28,000  Level New York Center
Thu 05:51:41 PM 41.1256 -74.2253 199° South 343 395 28,000  Level New York Center
Thu 05:52:41 PM 41.0369 -74.2703 201° Southwest 343 395 28,000  Level New York Center
Thu 05:53:40 PM 40.9500 -74.3178 202° Southwest 338 389 28,000  Level New York Center
Thu 05:54:40 PM 40.8653 -74.3628 202° Southwest 338 389 28,000  Level New York Center
Thu 05:55:41 PM 40.7803 -74.4186 206° Southwest 338 389 28,000  Level New York Center
Thu 05:56:39 PM 40.7253 -74.5114 232° Southwest 332 382 28,000 -202 Level New York Center
Thu 05:57:40 PM 40.6681 -74.6042 231° Southwest 327 376 27,600 -689 Descending New York Center
Thu 05:58:41 PM 40.6108 -74.6994 232° Southwest 332 382 26,600 -992 Descending New York Center
Thu 05:59:41 PM 40.5517 -74.7861 228° Southwest 332 382 25,600 -1,017 Descending New York Center
Thu 06:00:39 PM 40.4925 -74.8728 228° Southwest 327 376 24,600 -814 Descending New York Center
Thu 06:01:39 PM 40.4333 -74.9536 226° Southwest 321 369 24,000 -793 Descending New York Center
Thu 06:02:40 PM 40.3719 -75.0400 227° Southwest 321 369 23,000 -992 Descending New York Center
Thu 06:03:40 PM 40.3147 -75.1208 227° Southwest 321 369 22,000 -496 Descending New York Center
Thu 06:04:41 PM 40.2553 -75.2067 228° Southwest 321 369 22,000  Level New York Center
Thu 06:05:38 PM 40.1958 -75.2900 227° Southwest 321 369 22,000  Level New York Center
Thu 06:06:39 PM 40.1364 -75.3731 227° Southwest 321 369 22,000  Level New York Center
Thu 06:07:40 PM 40.0744 -75.4583 227° Southwest 326 375 22,000  Level New York Center
Thu 06:08:39 PM 40.0150 -75.5439 228° Southwest 326 375 22,000  Level New York Center
Thu 06:09:40 PM 39.9508 -75.6289 225° Southwest 326 375 22,000  Level New York Center
Thu 06:10:40 PM 39.8928 -75.7250 232° Southwest 337 388 22,000  Level New York Center
Thu 06:11:41 PM 39.8344 -75.8181 231° Southwest 337 388 22,000 -400 Level New York Center
Thu 06:12:40 PM 39.7764 -75.9086 230° Southwest 337 388 21,200 -908 Descending New York Center
Thu 06:13:40 PM 39.7222 -76.0017 233° Southwest 337 388 20,200 -1,450 Descending New York Center
Thu 06:14:40 PM 39.6556 -76.0967 228° Southwest 332 382 18,300 -1,835 Descending New York Center
Thu 06:15:41 PM 39.6036 -76.1817 232° Southwest 332 382 16,500 -1,838 Descending New York Center
Thu 06:16:31 PM 39.5500 -76.2667 231° Southwest 312 359 14,900 -1,784 Descending Potomac TRACON
Thu 06:17:32 PM 39.5000 -76.3500 232° Southwest 309 356 13,200 -1,438 Descending Potomac TRACON
Thu 06:18:32 PM 39.4333 -76.4333 224° Southwest 303 349 12,000 -600 Descending Potomac TRACON
Thu 06:19:32 PM 39.3667 -76.5000 218° Southwest 308 354 12,000 -250 Level Potomac TRACON
Thu 06:20:32 PM 39.3000 -76.5500 210° Southwest 309 356 11,500 -750 Descending Potomac TRACON
Thu 06:21:32 PM 39.2167 -76.6167 212° Southwest 304 350 10,500 -750 Descending Potomac TRACON
Thu 06:22:32 PM 39.1667 -76.6667 218° Southwest 271 312 10,000 -250 Descending Potomac TRACON
Thu 06:23:32 PM 39.1000 -76.7333 218° Southwest 270 311 10,000 -545 Level Potomac TRACON
Thu 06:24:33 PM 39.0500 -76.8000 226° Southwest 266 306 8,900 -1,438 Descending Potomac TRACON
Thu 06:25:33 PM 39.0000 -76.8667 226° Southwest 261 300 7,100 -1,450 Descending Potomac TRACON
Thu 06:26:33 PM 38.9500 -76.9333 226° Southwest 253 291 6,000 -550 Descending Potomac TRACON
Thu 06:27:33 PM 38.8833 -76.9500 191° South 238 274 6,000 -550 Level Potomac TRACON
Thu 06:28:33 PM 38.8167 -76.9500 180° South 227 261 4,900 -1,150 Descending Potomac TRACON
Thu 06:29:33 PM 38.7500 -76.9500 180° South 219 252 3,700 -1,091 Descending Potomac TRACON
Thu 06:30:34 PM 38.7000 -76.9500 180° South 222 255 2,700 -595 Descending Potomac TRACON
Thu 06:31:34 PM 38.6833 -77.0000 247° West 174 200 2,500 -150 Descending Potomac TRACON
Thu 06:32:34 PM 38.7333 -77.0333 333° Northwest 181 208 2,400 -100 Descending Potomac TRACON

Login

Don't have an account? Register now (free) for customized features, flight alerts, and more!